METAR / TAF

Buochs LSZC 020220Z AUTO 19005KT 8000 BKN021 BKN024 03/02 Q1019 REDZ

TAF LSZC 020225Z 0203/0212 VRB02KT 9999 BKN018 PROB40 TEMPO 0203/0209 BKN014 PROB30 TEMPO 0203/0207 4000 DZ


Alpnach AFB LSMA 020250Z AUTO VRB01KT 5000NDV BR FEW017 SCT021 OVC034 03/02 Q1019

TAF LSMA 011625Z 0117/0223 VRB02KT 8000 FEW015 BKN017 PROB40 TEMPO 0117/0209 BKN012


Emmen AFB LSME 020250Z AUTO 00000KT 7000NDV SCT020 OVC033 03/03 Q1019

TAF LSME 011625Z 0117/0223 VRB02KT 8000 FEW015 BKN018 PROB40 TEMPO 0117/0209 BKN013


Bern LSZB 020250Z AUTO 30002KT 8000 OVC034 03/01 Q1018

TAF LSZB 020225Z 0203/0212 VRB02KT 9999 BKN030


Grenchen LSZG 020250Z AUTO 05004KT 9999 OVC035 03/02 Q1019

TAF LSZG 012050Z 0120/0124 CNL


Zurich LSZH 020250Z AUTO 32004KT 9999 BKN036 02/01 Q1019 NOSIG

TAF LSZH 020225Z 0203/0309 32004KT 9999 BKN035 TX04/0213Z TN02/0205Z TN00/0301Z BECMG 0222/0301 3000 BCFG BKN006 BECMG 0304/0306 04007KT 9999 BKN012


Bale LFSB 020300Z AUTO 32005KT 6000 OVC007 03/02 Q1020 TEMPO 3000 -DZ BR OVC004

TAF LFSB 011700Z 0118/0218 36006KT 9999 SCT010 BKN040 BECMG 0118/0121 BKN008 TEMPO 0121/0209 3000 -DZ BR OVC004 PROB30 TEMPO 0204/0207 -RASN BECMG 0209/0212 BKN015


Les Eplatures LSGC 020250Z AUTO 05003KT 030V090 9999 BKN014 OVC016 M01/M02 Q1016

TAF LSGC 012008Z 0120/0124 CNL


Geneva LSGG 020250Z AUTO VRB02KT 9999 BKN019 SCT021 04/M00 Q1018 NOSIG

TAF LSGG 020225Z 0203/0309 03004KT 9999 BKN020 TX06/0214Z TN02/0206Z TN02/0306Z


Sion LSGS 020250Z AUTO VRB01KT CAVOK M00/M02 Q1018

TAF LSGS 012008Z 0120/0124 CNL


Payerne AFB LSMP 020250Z AUTO 07004KT 030V090 9999NDV BKN041 03/01 Q1018

TAF LSMP 010925Z 0110/0216 05007KT 9999 OVC040 PROB30 TEMPO 0201/0202 OVC014


Lugano LSZA 020250Z AUTO VRB01KT 9999 OVC080 04/03 Q1018

TAF LSZA 012050Z 0120/0124 CNL


Locarno LSZL 020250Z AUTO 00000KT 9999NDV OVC089 03/01 Q1018

TAF LSZL 020225Z 0203/0212 VRB02KT 9999 BKN085 PROB30 TEMPO 0209/0212 BKN014


St. Gallen LSZR 020250Z AUTO 32004KT 9999 FEW011 SCT015 OVC036 04/03 Q1019

TAF LSZR 020225Z 0203/0212 VRB02KT 9999 BKN012 BECMG 0204/0207 BKN016


Samedan LSZS 020250Z AUTO 00000KT CAVOK M10/M11 Q1015

TAF LSZS 012050Z 0120/0124 CNL

Radar

Föhn diagram

From an air pressure difference of approx. 4 hPa (dashed line) between the northern and southern Alps, Föhn can occur. The higher the pressure difference, the more violent the Föhn!

Forecast

Privacy Settings
We use cookies to enhance your experience while using our website. If you are using our Services via a browser you can restrict, block or remove cookies through your web browser settings. We also use content and scripts from third parties that may use tracking technologies. You can selectively provide your consent below to allow such third party embeds. For complete information about the cookies we use, data we collect and how we process them, please check our Privacy Policy
Youtube
Consent to display content from Youtube
Vimeo
Consent to display content from Vimeo
Google Maps
Consent to display content from Google